Main page
Satellite images 15-day forecastsClimateMarine weather Cyclones Lightning AirportsFAQ Newsletter About
Weather : Europe Africa North America South America Asia Australia-Oceania Others
Languages Contact

Bordeaux, France

Merignac

latitude: 44-50N, longitude: 000-42W, elevation: 49 m


METAR: LFBD 181530Z AUTO 31011KT 260V340 9999 NSC 21/06 Q1013
short-TAF: out of date (47768 hours)
long-TAF: LFBD 181100Z 1812/1918 29008KT CAVOK BECMG 1900/1903 03010KT

Time: 17:39 (15:39 UTC)

Current weather observation

The report was made 9 minutes ago, at 15:30 UTC  
Wind 11 kt from northwest, varying between west and north/northwest
Temperature 21°C
Humidity 38%
Pressure 1013 hPa
Visibility 10 km or more

Change units

Forecast

The report was made 4 hours and 24 minutes ago, at 11:15 UTC  
Forecast valid from 18 at 12 UTC to 19 at 18 UTC
Wind 08 kt from west/northwest
Visibility 10 km or more
no clouds below 1500 m and no cumulonimbus
Becoming
from 19 at 00 UTC to 19 at 03 UTC
Wind 10 kt from north/northeast
The information on this site is subject to a disclaimer
Weather : Europe Africa North America South America Asia Australia-Oceania Others
Satellite images 15-day forecastsClimateMarine weather Cyclones Lightning AirportsFAQ Languages Contact Newsletter About